sensor_id;sensor_type;location;lat;lon;timestamp;temperature;humidity
32334;DHT22;18810;53.040;8.850;2024-01-25T00:02:10;7.80;99.90
32334;DHT22;18810;53.040;8.850;2024-01-25T00:04:36;7.80;99.90
32334;DHT22;18810;53.040;8.850;2024-01-25T00:07:01;7.80;99.90
32334;DHT22;18810;53.040;8.850;2024-01-25T00:09:27;7.80;99.90
32334;DHT22;18810;53.040;8.850;2024-01-25T00:11:53;7.80;99.90
32334;DHT22;18810;53.040;8.850;2024-01-25T00:14:19;7.80;99.90
32334;DHT22;18810;53.040;8.850;2024-01-25T00:16:44;7.80;99.90
32334;DHT22;18810;53.040;8.850;2024-01-25T00:19:10;7.80;99.90
32334;DHT22;18810;53.040;8.850;2024-01-25T00:21:42;7.90;99.90
32334;DHT22;18810;53.040;8.850;2024-01-25T00:24:08;7.80;99.90
32334;DHT22;18810;53.040;8.850;2024-01-25T00:26:33;7.80;99.90
32334;DHT22;18810;53.040;8.850;2024-01-25T00:28:59;7.80;99.90
32334;DHT22;18810;53.040;8.850;2024-01-25T00:31:25;7.90;99.90
32334;DHT22;18810;53.040;8.850;2024-01-25T00:33:50;7.90;99.90
32334;DHT22;18810;53.040;8.850;2024-01-25T00:36:16;7.90;99.90
32334;DHT22;18810;53.040;8.850;2024-01-25T00:38:42;7.90;99.90
32334;DHT22;18810;53.040;8.850;2024-01-25T00:41:09;7.90;99.90
32334;DHT22;18810;53.040;8.850;2024-01-25T00:43:36;7.90;99.90
32334;DHT22;18810;53.040;8.850;2024-01-25T00:46:02;7.90;99.90
32334;DHT22;18810;53.040;8.850;2024-01-25T00:48:28;7.80;99.90
32334;DHT22;18810;53.040;8.850;2024-01-25T00:50:54;7.80;99.90
32334;DHT22;18810;53.040;8.850;2024-01-25T00:53:20;7.70;99.90
32334;DHT22;18810;53.040;8.850;2024-01-25T00:55:46;7.60;99.90
32334;DHT22;18810;53.040;8.850;2024-01-25T00:58:11;7.60;99.90
32334;DHT22;18810;53.040;8.850;2024-01-25T01:00:37;7.60;99.90
32334;DHT22;18810;53.040;8.850;2024-01-25T01:03:03;7.60;99.90
32334;DHT22;18810;53.040;8.850;2024-01-25T01:05:30;7.60;99.90
32334;DHT22;18810;53.040;8.850;2024-01-25T01:07:56;7.50;99.90
32334;DHT22;18810;53.040;8.850;2024-01-25T01:10:22;7.50;99.90
32334;DHT22;18810;53.040;8.850;2024-01-25T01:12:48;7.50;99.90
32334;DHT22;18810;53.040;8.850;2024-01-25T01:15:13;7.50;99.90
32334;DHT22;18810;53.040;8.850;2024-01-25T01:17:39;7.40;99.90
32334;DHT22;18810;53.040;8.850;2024-01-25T01:20:05;7.50;99.90
32334;DHT22;18810;53.040;8.850;2024-01-25T01:22:31;7.50;99.90
32334;DHT22;18810;53.040;8.850;2024-01-25T01:24:57;7.50;99.90
32334;DHT22;18810;53.040;8.850;2024-01-25T01:27:22;7.50;99.90
32334;DHT22;18810;53.040;8.850;2024-01-25T01:29:48;7.50;99.90
32334;DHT22;18810;53.040;8.850;2024-01-25T01:32:14;7.60;99.90
32334;DHT22;18810;53.040;8.850;2024-01-25T01:34:40;7.60;99.90
32334;DHT22;18810;53.040;8.850;2024-01-25T01:37:05;7.60;99.90
32334;DHT22;18810;53.040;8.850;2024-01-25T01:39:31;7.60;99.90
32334;DHT22;18810;53.040;8.850;2024-01-25T01:41:57;7.60;99.90
32334;DHT22;18810;53.040;8.850;2024-01-25T01:44:22;7.60;99.90
32334;DHT22;18810;53.040;8.850;2024-01-25T01:46:48;7.70;99.90
32334;DHT22;18810;53.040;8.850;2024-01-25T01:49:15;7.40;99.90
32334;DHT22;18810;53.040;8.850;2024-01-25T01:51:41;7.40;99.90
32334;DHT22;18810;53.040;8.850;2024-01-25T01:54:10;7.40;99.90
32334;DHT22;18810;53.040;8.850;2024-01-25T01:56:36;7.30;99.90
32334;DHT22;18810;53.040;8.850;2024-01-25T01:59:06;7.40;99.90
32334;DHT22;18810;53.040;8.850;2024-01-25T02:01:33;7.40;99.90
32334;DHT22;18810;53.040;8.850;2024-01-25T02:03:59;7.40;99.90
32334;DHT22;18810;53.040;8.850;2024-01-25T02:06:25;7.40;99.90
32334;DHT22;18810;53.040;8.850;2024-01-25T02:08:51;7.30;99.90
32334;DHT22;18810;53.040;8.850;2024-01-25T02:11:19;7.40;99.90
32334;DHT22;18810;53.040;8.850;2024-01-25T02:13:45;7.40;99.90
32334;DHT22;18810;53.040;8.850;2024-01-25T02:16:10;7.30;99.90
32334;DHT22;18810;53.040;8.850;2024-01-25T02:18:36;7.30;99.90
32334;DHT22;18810;53.040;8.850;2024-01-25T02:21:02;7.40;99.90
32334;DHT22;18810;53.040;8.850;2024-01-25T02:23:28;7.40;99.90
32334;DHT22;18810;53.040;8.850;2024-01-25T02:28:19;7.30;99.90
32334;DHT22;18810;53.040;8.850;2024-01-25T02:30:45;7.30;99.90
32334;DHT22;18810;53.040;8.850;2024-01-25T02:33:11;7.30;99.90
32334;DHT22;18810;53.040;8.850;2024-01-25T02:35:37;7.30;99.90
32334;DHT22;18810;53.040;8.850;2024-01-25T02:38:03;7.30;99.90
32334;DHT22;18810;53.040;8.850;2024-01-25T02:40:29;7.20;99.90
32334;DHT22;18810;53.040;8.850;2024-01-25T02:42:54;7.20;99.90
32334;DHT22;18810;53.040;8.850;2024-01-25T02:45:22;7.20;99.90
32334;DHT22;18810;53.040;8.850;2024-01-25T02:47:48;7.20;99.90
32334;DHT22;18810;53.040;8.850;2024-01-25T02:50:14;7.10;99.90
32334;DHT22;18810;53.040;8.850;2024-01-25T02:52:40;7.10;99.90
32334;DHT22;18810;53.040;8.850;2024-01-25T02:55:06;7.10;99.90
32334;DHT22;18810;53.040;8.850;2024-01-25T02:57:31;7.00;99.90
32334;DHT22;18810;53.040;8.850;2024-01-25T02:59:57;7.00;99.90
32334;DHT22;18810;53.040;8.850;2024-01-25T03:02:23;7.00;99.90
32334;DHT22;18810;53.040;8.850;2024-01-25T03:04:49;7.00;99.90
32334;DHT22;18810;53.040;8.850;2024-01-25T03:07:14;7.00;99.90
32334;DHT22;18810;53.040;8.850;2024-01-25T03:09:40;6.90;99.90
32334;DHT22;18810;53.040;8.850;2024-01-25T03:12:06;7.00;99.90
32334;DHT22;18810;53.040;8.850;2024-01-25T03:14:32;6.90;99.90
32334;DHT22;18810;53.040;8.850;2024-01-25T03:16:57;7.00;99.90
32334;DHT22;18810;53.040;8.850;2024-01-25T03:19:27;7.00;99.90
32334;DHT22;18810;53.040;8.850;2024-01-25T03:21:53;7.00;99.90
32334;DHT22;18810;53.040;8.850;2024-01-25T03:24:20;6.90;99.90
32334;DHT22;18810;53.040;8.850;2024-01-25T03:26:46;6.90;99.90
32334;DHT22;18810;53.040;8.850;2024-01-25T03:29:12;6.90;99.90
32334;DHT22;18810;53.040;8.850;2024-01-25T03:31:37;6.90;99.90
32334;DHT22;18810;53.040;8.850;2024-01-25T03:34:04;6.80;99.90
32334;DHT22;18810;53.040;8.850;2024-01-25T03:36:30;6.80;99.90
32334;DHT22;18810;53.040;8.850;2024-01-25T03:38:57;6.70;99.90
32334;DHT22;18810;53.040;8.850;2024-01-25T03:41:23;6.80;99.90
32334;DHT22;18810;53.040;8.850;2024-01-25T03:43:49;6.80;99.90
32334;DHT22;18810;53.040;8.850;2024-01-25T03:46:15;6.80;99.90
32334;DHT22;18810;53.040;8.850;2024-01-25T03:48:41;6.80;99.90
32334;DHT22;18810;53.040;8.850;2024-01-25T03:51:07;6.70;99.90
32334;DHT22;18810;53.040;8.850;2024-01-25T03:53:33;6.70;99.90
32334;DHT22;18810;53.040;8.850;2024-01-25T03:55:59;6.70;99.90
32334;DHT22;18810;53.040;8.850;2024-01-25T03:58:25;6.70;99.90
32334;DHT22;18810;53.040;8.850;2024-01-25T04:00:50;6.70;99.90
32334;DHT22;18810;53.040;8.850;2024-01-25T04:03:16;6.70;99.90
32334;DHT22;18810;53.040;8.850;2024-01-25T04:05:41;6.70;99.90
32334;DHT22;18810;53.040;8.850;2024-01-25T04:08:08;6.70;99.90
32334;DHT22;18810;53.040;8.850;2024-01-25T04:10:33;6.70;99.90
32334;DHT22;18810;53.040;8.850;2024-01-25T04:12:59;6.70;99.90
32334;DHT22;18810;53.040;8.850;2024-01-25T04:15:32;6.70;99.90
32334;DHT22;18810;53.040;8.850;2024-01-25T04:17:58;6.70;99.90
32334;DHT22;18810;53.040;8.850;2024-01-25T04:20:24;6.80;99.90
32334;DHT22;18810;53.040;8.850;2024-01-25T04:22:50;6.80;99.90
32334;DHT22;18810;53.040;8.850;2024-01-25T04:25:15;6.80;99.90
32334;DHT22;18810;53.040;8.850;2024-01-25T04:27:41;6.80;99.90
32334;DHT22;18810;53.040;8.850;2024-01-25T04:30:07;6.70;99.90
32334;DHT22;18810;53.040;8.850;2024-01-25T04:32:34;6.70;99.90
32334;DHT22;18810;53.040;8.850;2024-01-25T04:35:00;6.70;99.90
32334;DHT22;18810;53.040;8.850;2024-01-25T04:37:25;6.70;99.90
32334;DHT22;18810;53.040;8.850;2024-01-25T04:39:51;6.70;99.90
32334;DHT22;18810;53.040;8.850;2024-01-25T04:42:17;6.80;99.90
32334;DHT22;18810;53.040;8.850;2024-01-25T04:44:43;6.70;99.90
32334;DHT22;18810;53.040;8.850;2024-01-25T04:47:09;6.80;99.90
32334;DHT22;18810;53.040;8.850;2024-01-25T04:49:35;6.80;99.90
32334;DHT22;18810;53.040;8.850;2024-01-25T04:54:27;6.80;99.90
32334;DHT22;18810;53.040;8.850;2024-01-25T04:56:53;6.70;99.90
32334;DHT22;18810;53.040;8.850;2024-01-25T04:59:19;6.70;99.90
32334;DHT22;18810;53.040;8.850;2024-01-25T05:01:44;6.70;99.90
32334;DHT22;18810;53.040;8.850;2024-01-25T05:04:10;6.70;99.90
32334;DHT22;18810;53.040;8.850;2024-01-25T05:06:36;6.60;99.90
32334;DHT22;18810;53.040;8.850;2024-01-25T05:09:02;6.60;99.90
32334;DHT22;18810;53.040;8.850;2024-01-25T05:11:28;6.60;99.90
32334;DHT22;18810;53.040;8.850;2024-01-25T05:13:54;6.60;99.90
32334;DHT22;18810;53.040;8.850;2024-01-25T05:16:19;6.60;99.90
32334;DHT22;18810;53.040;8.850;2024-01-25T05:18:45;6.50;99.90
32334;DHT22;18810;53.040;8.850;2024-01-25T05:21:11;6.60;99.90
32334;DHT22;18810;53.040;8.850;2024-01-25T05:23:36;6.50;99.90
32334;DHT22;18810;53.040;8.850;2024-01-25T05:26:02;6.50;99.90
32334;DHT22;18810;53.040;8.850;2024-01-25T05:28:28;6.50;99.90
32334;DHT22;18810;53.040;8.850;2024-01-25T05:30:53;6.50;99.90
32334;DHT22;18810;53.040;8.850;2024-01-25T05:33:19;6.50;99.90
32334;DHT22;18810;53.040;8.850;2024-01-25T05:35:45;6.50;99.90
32334;DHT22;18810;53.040;8.850;2024-01-25T05:38:11;6.50;99.90
32334;DHT22;18810;53.040;8.850;2024-01-25T05:40:36;6.50;99.90
32334;DHT22;18810;53.040;8.850;2024-01-25T05:43:02;6.50;99.90
32334;DHT22;18810;53.040;8.850;2024-01-25T05:45:28;6.50;99.90
32334;DHT22;18810;53.040;8.850;2024-01-25T05:47:54;6.50;99.90
32334;DHT22;18810;53.040;8.850;2024-01-25T05:50:19;6.50;99.90
32334;DHT22;18810;53.040;8.850;2024-01-25T05:52:45;6.60;99.90
32334;DHT22;18810;53.040;8.850;2024-01-25T05:55:11;6.60;99.90
32334;DHT22;18810;53.040;8.850;2024-01-25T05:57:39;6.60;99.90
32334;DHT22;18810;53.040;8.850;2024-01-25T06:00:05;6.60;99.90
32334;DHT22;18810;53.040;8.850;2024-01-25T06:02:31;6.60;99.90
32334;DHT22;18810;53.040;8.850;2024-01-25T06:04:57;6.60;99.90
32334;DHT22;18810;53.040;8.850;2024-01-25T06:07:25;6.70;99.90
32334;DHT22;18810;53.040;8.850;2024-01-25T06:09:50;6.70;99.90
32334;DHT22;18810;53.040;8.850;2024-01-25T06:12:16;6.70;99.90
32334;DHT22;18810;53.040;8.850;2024-01-25T06:14:42;6.80;99.90
32334;DHT22;18810;53.040;8.850;2024-01-25T06:17:08;6.70;99.90
32334;DHT22;18810;53.040;8.850;2024-01-25T06:19:33;6.70;99.90
32334;DHT22;18810;53.040;8.850;2024-01-25T06:22:00;6.70;99.90
32334;DHT22;18810;53.040;8.850;2024-01-25T06:24:26;6.60;99.90
32334;DHT22;18810;53.040;8.850;2024-01-25T06:26:53;6.60;99.90
32334;DHT22;18810;53.040;8.850;2024-01-25T06:29:18;6.70;99.90
32334;DHT22;18810;53.040;8.850;2024-01-25T06:31:45;6.60;99.90
32334;DHT22;18810;53.040;8.850;2024-01-25T06:34:11;6.70;99.90
32334;DHT22;18810;53.040;8.850;2024-01-25T06:36:37;6.80;99.90
32334;DHT22;18810;53.040;8.850;2024-01-25T06:39:03;6.60;99.90
32334;DHT22;18810;53.040;8.850;2024-01-25T06:41:32;6.60;99.90
32334;DHT22;18810;53.040;8.850;2024-01-25T06:43:58;6.60;99.90
32334;DHT22;18810;53.040;8.850;2024-01-25T06:46:24;6.50;99.90
32334;DHT22;18810;53.040;8.850;2024-01-25T06:48:50;6.50;99.90
32334;DHT22;18810;53.040;8.850;2024-01-25T06:51:16;6.50;99.90
32334;DHT22;18810;53.040;8.850;2024-01-25T06:53:42;6.50;99.90
32334;DHT22;18810;53.040;8.850;2024-01-25T06:56:07;6.50;99.90
32334;DHT22;18810;53.040;8.850;2024-01-25T06:58:33;6.40;99.90
32334;DHT22;18810;53.040;8.850;2024-01-25T07:00:59;6.40;99.90
32334;DHT22;18810;53.040;8.850;2024-01-25T07:03:25;6.40;99.90
32334;DHT22;18810;53.040;8.850;2024-01-25T07:05:51;6.50;99.90
32334;DHT22;18810;53.040;8.850;2024-01-25T07:08:16;6.50;99.90
32334;DHT22;18810;53.040;8.850;2024-01-25T07:10:43;6.50;99.90
32334;DHT22;18810;53.040;8.850;2024-01-25T07:13:09;6.50;99.90
32334;DHT22;18810;53.040;8.850;2024-01-25T07:15:35;6.40;99.90
32334;DHT22;18810;53.040;8.850;2024-01-25T07:18:00;6.50;99.90
32334;DHT22;18810;53.040;8.850;2024-01-25T07:20:26;6.50;99.90
32334;DHT22;18810;53.040;8.850;2024-01-25T07:22:52;6.50;99.90
32334;DHT22;18810;53.040;8.850;2024-01-25T07:25:18;6.50;99.90
32334;DHT22;18810;53.040;8.850;2024-01-25T07:27:47;6.60;99.90
32334;DHT22;18810;53.040;8.850;2024-01-25T07:30:13;6.60;99.90
32334;DHT22;18810;53.040;8.850;2024-01-25T07:32:39;6.60;99.90
32334;DHT22;18810;53.040;8.850;2024-01-25T07:35:08;6.60;99.90
32334;DHT22;18810;53.040;8.850;2024-01-25T07:37:35;6.60;99.90
32334;DHT22;18810;53.040;8.850;2024-01-25T07:40:01;6.60;99.90
32334;DHT22;18810;53.040;8.850;2024-01-25T07:42:29;6.60;99.90
32334;DHT22;18810;53.040;8.850;2024-01-25T07:44:55;6.60;99.90
32334;DHT22;18810;53.040;8.850;2024-01-25T07:47:20;6.60;99.90
32334;DHT22;18810;53.040;8.850;2024-01-25T07:49:46;6.70;99.90
32334;DHT22;18810;53.040;8.850;2024-01-25T07:52:12;6.80;99.90
32334;DHT22;18810;53.040;8.850;2024-01-25T07:54:37;6.80;99.90
32334;DHT22;18810;53.040;8.850;2024-01-25T07:57:03;6.80;99.90
32334;DHT22;18810;53.040;8.850;2024-01-25T07:59:29;6.80;99.90
32334;DHT22;18810;53.040;8.850;2024-01-25T08:01:54;6.80;99.90
32334;DHT22;18810;53.040;8.850;2024-01-25T08:04:20;6.80;99.90
32334;DHT22;18810;53.040;8.850;2024-01-25T08:06:46;6.90;99.90
32334;DHT22;18810;53.040;8.850;2024-01-25T08:09:11;6.80;99.90
32334;DHT22;18810;53.040;8.850;2024-01-25T08:11:37;6.80;99.90
32334;DHT22;18810;53.040;8.850;2024-01-25T08:14:03;6.80;99.90
32334;DHT22;18810;53.040;8.850;2024-01-25T08:16:29;6.80;99.90
32334;DHT22;18810;53.040;8.850;2024-01-25T08:18:55;6.90;99.90
32334;DHT22;18810;53.040;8.850;2024-01-25T08:21:21;6.90;99.90
32334;DHT22;18810;53.040;8.850;2024-01-25T08:23:47;6.90;99.90
32334;DHT22;18810;53.040;8.850;2024-01-25T08:26:14;6.90;99.90
32334;DHT22;18810;53.040;8.850;2024-01-25T08:28:40;7.00;99.90
32334;DHT22;18810;53.040;8.850;2024-01-25T08:31:06;7.00;99.90
32334;DHT22;18810;53.040;8.850;2024-01-25T08:33:32;7.00;99.90
32334;DHT22;18810;53.040;8.850;2024-01-25T08:35:58;7.00;99.90
32334;DHT22;18810;53.040;8.850;2024-01-25T08:38:24;7.00;99.90
32334;DHT22;18810;53.040;8.850;2024-01-25T08:40:50;6.90;99.90
32334;DHT22;18810;53.040;8.850;2024-01-25T08:43:15;7.00;99.90
32334;DHT22;18810;53.040;8.850;2024-01-25T08:45:41;7.10;99.90
32334;DHT22;18810;53.040;8.850;2024-01-25T08:48:07;7.10;99.90
32334;DHT22;18810;53.040;8.850;2024-01-25T08:50:37;7.00;99.90
32334;DHT22;18810;53.040;8.850;2024-01-25T08:53:03;6.90;99.90
32334;DHT22;18810;53.040;8.850;2024-01-25T08:55:30;6.90;99.90
32334;DHT22;18810;53.040;8.850;2024-01-25T08:57:56;6.90;99.90
32334;DHT22;18810;53.040;8.850;2024-01-25T09:00:22;7.00;99.90
32334;DHT22;18810;53.040;8.850;2024-01-25T09:02:48;7.10;99.90
32334;DHT22;18810;53.040;8.850;2024-01-25T09:05:14;7.10;99.90
32334;DHT22;18810;53.040;8.850;2024-01-25T09:07:40;7.00;99.90
32334;DHT22;18810;53.040;8.850;2024-01-25T09:10:07;7.10;99.90
32334;DHT22;18810;53.040;8.850;2024-01-25T09:12:34;7.20;99.90
32334;DHT22;18810;53.040;8.850;2024-01-25T09:15:01;7.30;99.90
32334;DHT22;18810;53.040;8.850;2024-01-25T09:17:26;7.40;99.90
32334;DHT22;18810;53.040;8.850;2024-01-25T09:19:52;7.40;99.90
32334;DHT22;18810;53.040;8.850;2024-01-25T09:22:18;7.40;99.90
32334;DHT22;18810;53.040;8.850;2024-01-25T09:24:47;7.40;99.90
32334;DHT22;18810;53.040;8.850;2024-01-25T09:27:14;7.40;99.90
32334;DHT22;18810;53.040;8.850;2024-01-25T09:29:40;7.40;99.90
32334;DHT22;18810;53.040;8.850;2024-01-25T09:32:07;7.40;99.90
32334;DHT22;18810;53.040;8.850;2024-01-25T09:34:39;7.40;99.90
32334;DHT22;18810;53.040;8.850;2024-01-25T09:37:05;7.40;99.90
32334;DHT22;18810;53.040;8.850;2024-01-25T09:39:31;7.50;99.90
32334;DHT22;18810;53.040;8.850;2024-01-25T09:41:57;7.40;99.90
32334;DHT22;18810;53.040;8.850;2024-01-25T09:44:23;7.30;99.90
32334;DHT22;18810;53.040;8.850;2024-01-25T09:46:51;7.30;99.90
32334;DHT22;18810;53.040;8.850;2024-01-25T09:49:17;7.30;99.90
32334;DHT22;18810;53.040;8.850;2024-01-25T09:51:46;7.30;99.90
32334;DHT22;18810;53.040;8.850;2024-01-25T09:54:13;7.40;99.90
32334;DHT22;18810;53.040;8.850;2024-01-25T09:56:41;7.60;99.90
32334;DHT22;18810;53.040;8.850;2024-01-25T09:59:08;7.40;99.90
32334;DHT22;18810;53.040;8.850;2024-01-25T10:01:34;7.40;99.90
32334;DHT22;18810;53.040;8.850;2024-01-25T10:04:00;7.40;99.90
32334;DHT22;18810;53.040;8.850;2024-01-25T10:06:26;7.40;99.90
32334;DHT22;18810;53.040;8.850;2024-01-25T10:08:53;7.40;99.90
32334;DHT22;18810;53.040;8.850;2024-01-25T10:11:18;7.50;99.90
32334;DHT22;18810;53.040;8.850;2024-01-25T10:13:48;7.70;99.90
32334;DHT22;18810;53.040;8.850;2024-01-25T10:16:17;7.70;99.90
32334;DHT22;18810;53.040;8.850;2024-01-25T10:18:45;7.70;99.90
32334;DHT22;18810;53.040;8.850;2024-01-25T10:21:12;7.70;99.90
32334;DHT22;18810;53.040;8.850;2024-01-25T10:23:39;7.60;99.90
32334;DHT22;18810;53.040;8.850;2024-01-25T10:26:07;7.60;99.90
32334;DHT22;18810;53.040;8.850;2024-01-25T10:28:33;7.60;99.90
32334;DHT22;18810;53.040;8.850;2024-01-25T10:31:03;7.60;99.90
32334;DHT22;18810;53.040;8.850;2024-01-25T10:33:33;7.60;99.90
32334;DHT22;18810;53.040;8.850;2024-01-25T10:36:03;7.70;99.90
32334;DHT22;18810;53.040;8.850;2024-01-25T10:38:33;7.80;99.90
32334;DHT22;18810;53.040;8.850;2024-01-25T10:41:05;7.90;99.90
32334;DHT22;18810;53.040;8.850;2024-01-25T10:43:31;7.90;99.90
32334;DHT22;18810;53.040;8.850;2024-01-25T10:45:57;7.80;99.90
32334;DHT22;18810;53.040;8.850;2024-01-25T10:48:27;7.90;99.90
32334;DHT22;18810;53.040;8.850;2024-01-25T10:50:54;7.80;99.90
32334;DHT22;18810;53.040;8.850;2024-01-25T10:53:21;7.80;99.90
32334;DHT22;18810;53.040;8.850;2024-01-25T10:55:47;7.80;99.90
32334;DHT22;18810;53.040;8.850;2024-01-25T10:58:14;7.80;99.90
32334;DHT22;18810;53.040;8.850;2024-01-25T11:00:40;7.80;99.90
32334;DHT22;18810;53.040;8.850;2024-01-25T11:03:06;8.00;99.90
32334;DHT22;18810;53.040;8.850;2024-01-25T11:05:32;8.10;99.90
32334;DHT22;18810;53.040;8.850;2024-01-25T11:08:00;8.20;99.90
32334;DHT22;18810;53.040;8.850;2024-01-25T11:10:26;8.20;99.90
32334;DHT22;18810;53.040;8.850;2024-01-25T11:12:59;8.40;99.90
32334;DHT22;18810;53.040;8.850;2024-01-25T11:15:33;8.60;99.90
32334;DHT22;18810;53.040;8.850;2024-01-25T11:18:03;8.50;99.90
32334;DHT22;18810;53.040;8.850;2024-01-25T11:20:33;8.50;99.90
32334;DHT22;18810;53.040;8.850;2024-01-25T11:23:04;8.40;99.90
32334;DHT22;18810;53.040;8.850;2024-01-25T11:25:32;8.40;99.90
32334;DHT22;18810;53.040;8.850;2024-01-25T11:27:58;8.30;99.90
32334;DHT22;18810;53.040;8.850;2024-01-25T11:30:25;8.30;99.90
32334;DHT22;18810;53.040;8.850;2024-01-25T11:32:50;8.40;99.90
32334;DHT22;18810;53.040;8.850;2024-01-25T11:35:16;8.30;99.90
32334;DHT22;18810;53.040;8.850;2024-01-25T11:37:46;8.30;99.90
32334;DHT22;18810;53.040;8.850;2024-01-25T11:40:13;8.30;99.90
32334;DHT22;18810;53.040;8.850;2024-01-25T11:42:48;8.50;99.90
32334;DHT22;18810;53.040;8.850;2024-01-25T11:45:14;8.70;99.90
32334;DHT22;18810;53.040;8.850;2024-01-25T11:47:41;8.60;99.90
32334;DHT22;18810;53.040;8.850;2024-01-25T11:50:09;8.50;99.90
32334;DHT22;18810;53.040;8.850;2024-01-25T11:52:35;8.50;99.90
32334;DHT22;18810;53.040;8.850;2024-01-25T11:55:08;8.70;99.90
32334;DHT22;18810;53.040;8.850;2024-01-25T11:57:37;8.70;99.90
32334;DHT22;18810;53.040;8.850;2024-01-25T12:00:08;8.70;99.90
32334;DHT22;18810;53.040;8.850;2024-01-25T12:02:36;8.80;99.90
32334;DHT22;18810;53.040;8.850;2024-01-25T12:05:02;8.70;99.90
32334;DHT22;18810;53.040;8.850;2024-01-25T12:07:30;8.60;99.90
32334;DHT22;18810;53.040;8.850;2024-01-25T12:10:07;8.70;99.90
32334;DHT22;18810;53.040;8.850;2024-01-25T12:12:35;8.90;99.90
32334;DHT22;18810;53.040;8.850;2024-01-25T12:15:10;9.10;99.90
32334;DHT22;18810;53.040;8.850;2024-01-25T12:17:36;9.30;99.90
32334;DHT22;18810;53.040;8.850;2024-01-25T12:20:04;9.70;99.90
32334;DHT22;18810;53.040;8.850;2024-01-25T12:22:36;9.80;99.90
32334;DHT22;18810;53.040;8.850;2024-01-25T12:25:02;9.80;99.90
32334;DHT22;18810;53.040;8.850;2024-01-25T12:27:29;9.60;99.90
32334;DHT22;18810;53.040;8.850;2024-01-25T12:29:58;9.90;99.90
32334;DHT22;18810;53.040;8.850;2024-01-25T12:32:24;10.30;99.90
32334;DHT22;18810;53.040;8.850;2024-01-25T12:34:57;10.50;99.90
32334;DHT22;18810;53.040;8.850;2024-01-25T12:37:23;10.50;99.90
32334;DHT22;18810;53.040;8.850;2024-01-25T12:39:51;10.20;99.90
32334;DHT22;18810;53.040;8.850;2024-01-25T12:42:18;10.20;99.90
32334;DHT22;18810;53.040;8.850;2024-01-25T12:44:44;10.30;99.90
32334;DHT22;18810;53.040;8.850;2024-01-25T12:47:11;10.10;99.90
32334;DHT22;18810;53.040;8.850;2024-01-25T12:49:42;9.80;99.90
32334;DHT22;18810;53.040;8.850;2024-01-25T12:52:13;9.30;99.90
32334;DHT22;18810;53.040;8.850;2024-01-25T12:54:38;9.10;99.90
32334;DHT22;18810;53.040;8.850;2024-01-25T12:57:05;9.50;99.90
32334;DHT22;18810;53.040;8.850;2024-01-25T12:59:35;9.90;99.90
32334;DHT22;18810;53.040;8.850;2024-01-25T13:02:01;10.10;99.90
32334;DHT22;18810;53.040;8.850;2024-01-25T13:04:27;10.40;99.90
32334;DHT22;18810;53.040;8.850;2024-01-25T13:06:54;10.40;99.90
32334;DHT22;18810;53.040;8.850;2024-01-25T13:09:22;10.50;99.90
32334;DHT22;18810;53.040;8.850;2024-01-25T13:11:48;10.90;99.90
32334;DHT22;18810;53.040;8.850;2024-01-25T13:14:14;10.60;99.90
32334;DHT22;18810;53.040;8.850;2024-01-25T13:16:39;9.90;99.90
32334;DHT22;18810;53.040;8.850;2024-01-25T13:19:05;9.90;99.90
32334;DHT22;18810;53.040;8.850;2024-01-25T13:21:31;9.90;99.90
32334;DHT22;18810;53.040;8.850;2024-01-25T13:23:59;9.80;99.90
32334;DHT22;18810;53.040;8.850;2024-01-25T13:26:26;9.90;99.90
32334;DHT22;18810;53.040;8.850;2024-01-25T13:28:51;10.10;99.90
32334;DHT22;18810;53.040;8.850;2024-01-25T13:31:17;10.30;99.90
32334;DHT22;18810;53.040;8.850;2024-01-25T13:33:43;10.80;99.90
32334;DHT22;18810;53.040;8.850;2024-01-25T13:36:09;10.80;99.90
32334;DHT22;18810;53.040;8.850;2024-01-25T13:38:36;10.70;99.90
32334;DHT22;18810;53.040;8.850;2024-01-25T13:41:02;10.80;99.90
32334;DHT22;18810;53.040;8.850;2024-01-25T13:43:28;10.90;99.90
32334;DHT22;18810;53.040;8.850;2024-01-25T13:45:54;11.00;99.90
32334;DHT22;18810;53.040;8.850;2024-01-25T13:48:20;11.00;99.90
32334;DHT22;18810;53.040;8.850;2024-01-25T13:50:46;10.70;99.90
32334;DHT22;18810;53.040;8.850;2024-01-25T13:53:12;10.20;99.90
32334;DHT22;18810;53.040;8.850;2024-01-25T13:55:37;10.30;99.90
32334;DHT22;18810;53.040;8.850;2024-01-25T13:58:03;10.10;99.90
32334;DHT22;18810;53.040;8.850;2024-01-25T14:00:29;10.20;99.90
32334;DHT22;18810;53.040;8.850;2024-01-25T14:02:55;10.10;99.90
32334;DHT22;18810;53.040;8.850;2024-01-25T14:05:20;10.00;99.90
32334;DHT22;18810;53.040;8.850;2024-01-25T14:07:46;9.80;99.90
32334;DHT22;18810;53.040;8.850;2024-01-25T14:10:13;9.80;99.90
32334;DHT22;18810;53.040;8.850;2024-01-25T14:12:39;9.80;99.90
32334;DHT22;18810;53.040;8.850;2024-01-25T14:15:05;9.60;99.90
32334;DHT22;18810;53.040;8.850;2024-01-25T14:17:30;9.60;99.90
32334;DHT22;18810;53.040;8.850;2024-01-25T14:19:56;9.50;99.90
32334;DHT22;18810;53.040;8.850;2024-01-25T14:22:22;9.50;99.90
32334;DHT22;18810;53.040;8.850;2024-01-25T14:24:48;9.50;99.90
32334;DHT22;18810;53.040;8.850;2024-01-25T14:27:13;9.60;99.90
32334;DHT22;18810;53.040;8.850;2024-01-25T14:29:39;9.90;99.90
32334;DHT22;18810;53.040;8.850;2024-01-25T14:32:05;10.00;99.90
32334;DHT22;18810;53.040;8.850;2024-01-25T14:34:30;10.00;99.90
32334;DHT22;18810;53.040;8.850;2024-01-25T14:36:56;10.00;99.90
32334;DHT22;18810;53.040;8.850;2024-01-25T14:39:22;10.00;99.90
32334;DHT22;18810;53.040;8.850;2024-01-25T14:41:47;10.00;99.90
32334;DHT22;18810;53.040;8.850;2024-01-25T14:44:13;10.10;99.90
32334;DHT22;18810;53.040;8.850;2024-01-25T14:46:39;9.90;99.90
32334;DHT22;18810;53.040;8.850;2024-01-25T14:49:05;10.00;99.90
32334;DHT22;18810;53.040;8.850;2024-01-25T14:51:30;9.90;99.90
32334;DHT22;18810;53.040;8.850;2024-01-25T14:53:56;8.30;99.90
32334;DHT22;18810;53.040;8.850;2024-01-25T14:56:22;9.90;99.90
32334;DHT22;18810;53.040;8.850;2024-01-25T14:58:48;9.80;99.90
32334;DHT22;18810;53.040;8.850;2024-01-25T15:01:15;9.80;99.90
32334;DHT22;18810;53.040;8.850;2024-01-25T15:03:46;9.70;99.90
32334;DHT22;18810;53.040;8.850;2024-01-25T15:06:12;9.40;99.90
32334;DHT22;18810;53.040;8.850;2024-01-25T15:08:38;9.30;99.90
32334;DHT22;18810;53.040;8.850;2024-01-25T15:11:04;9.10;99.90
32334;DHT22;18810;53.040;8.850;2024-01-25T15:13:30;9.00;99.90
32334;DHT22;18810;53.040;8.850;2024-01-25T15:15:56;8.90;99.90
32334;DHT22;18810;53.040;8.850;2024-01-25T15:18:21;8.90;99.90
32334;DHT22;18810;53.040;8.850;2024-01-25T15:20:47;8.90;99.90
32334;DHT22;18810;53.040;8.850;2024-01-25T15:23:13;8.90;99.90
32334;DHT22;18810;53.040;8.850;2024-01-25T15:25:39;8.70;99.90
32334;DHT22;18810;53.040;8.850;2024-01-25T15:28:05;8.50;99.90
32334;DHT22;18810;53.040;8.850;2024-01-25T15:30:31;8.80;99.90
32334;DHT22;18810;53.040;8.850;2024-01-25T15:32:56;8.50;99.90
32334;DHT22;18810;53.040;8.850;2024-01-25T15:35:23;8.60;99.90
32334;DHT22;18810;53.040;8.850;2024-01-25T15:37:49;8.60;99.90
32334;DHT22;18810;53.040;8.850;2024-01-25T15:40:15;8.40;99.90
32334;DHT22;18810;53.040;8.850;2024-01-25T15:42:42;8.30;99.90
32334;DHT22;18810;53.040;8.850;2024-01-25T15:45:09;8.20;99.90